createdAt,value
2018-06-20T00:04:46.982Z,18.90
2018-06-20T00:09:41.409Z,18.80
2018-06-20T00:14:35.813Z,18.80
2018-06-20T00:19:30.280Z,18.80
2018-06-20T00:24:24.832Z,18.60
2018-06-20T00:29:19.284Z,18.60
2018-06-20T00:34:13.711Z,18.50
2018-06-20T00:39:10.421Z,18.50
2018-06-20T00:44:04.956Z,18.30
2018-06-20T00:53:53.534Z,18.30
2018-06-20T00:58:47.935Z,18.20
2018-06-20T01:03:42.340Z,18.20
2018-06-20T01:08:36.781Z,18.20
2018-06-20T01:13:31.208Z,18.20
2018-06-20T01:18:25.649Z,18.00
2018-06-20T01:23:20.208Z,18.00
2018-06-20T01:28:14.624Z,18.00
2018-06-20T01:33:09.020Z,17.80
2018-06-20T01:38:03.448Z,17.80
2018-06-20T01:42:57.893Z,17.90
2018-06-20T01:47:52.310Z,17.80
2018-06-20T01:52:46.772Z,17.80
2018-06-20T01:57:41.199Z,17.80
2018-06-20T02:02:35.730Z,17.70
2018-06-20T02:12:24.264Z,17.60
2018-06-20T02:17:20.614Z,17.50
2018-06-20T02:22:14.996Z,17.50
2018-06-20T02:27:09.423Z,17.50
2018-06-20T02:32:03.948Z,17.50
2018-06-20T02:36:58.350Z,17.50
2018-06-20T02:41:54.436Z,17.40
2018-06-20T02:46:48.891Z,17.40
2018-06-20T02:51:43.304Z,17.40
2018-06-20T02:56:37.705Z,17.40
2018-06-20T03:01:32.185Z,17.20
2018-06-20T03:06:26.623Z,17.20
2018-06-20T03:11:21.053Z,17.20
2018-06-20T03:21:09.689Z,17.10
2018-06-20T03:26:04.146Z,17.00
2018-06-20T03:30:58.595Z,17.00
2018-06-20T03:35:53.012Z,17.00
2018-06-20T03:40:47.468Z,17.00
2018-06-20T03:45:41.928Z,17.10
2018-06-20T03:50:36.384Z,17.10
2018-06-20T03:55:30.792Z,17.20
2018-06-20T04:00:25.245Z,17.80
2018-06-20T04:05:19.652Z,19.30
2018-06-20T04:10:14.081Z,20.90
2018-06-20T04:15:08.556Z,22.40
2018-06-20T04:20:03.036Z,23.60
2018-06-20T04:24:57.460Z,24.40
2018-06-20T04:29:51.865Z,24.40
2018-06-20T04:34:46.344Z,25.40
2018-06-20T04:39:40.750Z,26.00
2018-06-20T04:44:35.210Z,26.70
2018-06-20T04:49:29.607Z,28.00
2018-06-20T04:54:24.002Z,28.30
2018-06-20T04:59:18.407Z,28.10
2018-06-20T05:04:12.861Z,28.60
2018-06-20T05:09:13.633Z,29.00
2018-06-20T05:14:08.071Z,31.50
2018-06-20T05:19:02.520Z,31.70
2018-06-20T05:23:56.933Z,32.20
2018-06-20T05:28:51.455Z,31.70
2018-06-20T05:33:45.830Z,31.40
2018-06-20T05:38:44.319Z,32.10
2018-06-20T05:43:44.199Z,31.70
2018-06-20T05:48:38.686Z,31.90
2018-06-20T05:53:36.679Z,32.00
2018-06-20T05:58:58.246Z,32.60
2018-06-20T06:08:47.169Z,31.50
2018-06-20T06:13:46.268Z,31.10
2018-06-20T06:18:43.929Z,30.00
2018-06-20T06:23:38.354Z,30.10
2018-06-20T06:28:32.768Z,29.30
2018-06-20T06:33:34.351Z,29.00
2018-06-20T06:38:31.667Z,28.40
2018-06-20T06:43:26.072Z,27.90
2018-06-20T06:48:20.498Z,27.60
2018-06-20T06:53:14.993Z,27.90
2018-06-20T06:58:10.247Z,27.70
2018-06-20T07:03:04.831Z,28.20
2018-06-20T07:07:59.249Z,27.00
2018-06-20T07:12:53.982Z,27.10
2018-06-20T07:17:48.984Z,27.20
2018-06-20T07:22:43.427Z,26.40
2018-06-20T07:27:38.057Z,26.50
2018-06-20T07:32:41.752Z,26.00
2018-06-20T07:37:53.882Z,25.90
2018-06-20T07:43:03.505Z,26.50
2018-06-20T07:47:57.995Z,26.30
2018-06-20T07:52:53.408Z,26.50
2018-06-20T07:57:48.429Z,26.20
2018-06-20T08:03:04.773Z,26.10
2018-06-20T08:08:05.836Z,25.80
2018-06-20T08:13:08.004Z,26.00
2018-06-20T08:23:02.629Z,25.80
2018-06-20T08:27:57.471Z,26.30
2018-06-20T08:32:51.889Z,26.40
2018-06-20T08:37:46.684Z,26.50
2018-06-20T08:42:41.412Z,26.50
2018-06-20T08:47:35.898Z,26.40
2018-06-20T08:52:30.828Z,26.20
2018-06-20T08:57:25.350Z,26.20
2018-06-20T09:07:27.511Z,26.40
2018-06-20T09:12:27.586Z,26.90
2018-06-20T09:17:27.614Z,26.80
2018-06-20T09:22:22.646Z,26.70
2018-06-20T09:27:17.643Z,26.70
2018-06-20T09:32:13.556Z,26.50
2018-06-20T09:37:08.047Z,26.80
2018-06-20T09:42:03.021Z,26.70
2018-06-20T09:46:58.544Z,26.70
2018-06-20T09:51:52.975Z,27.20
2018-06-20T09:56:47.421Z,27.40
2018-06-20T10:01:47.285Z,26.90
2018-06-20T10:06:46.924Z,27.10
2018-06-20T10:11:46.264Z,27.30
2018-06-20T10:16:40.948Z,27.60
2018-06-20T10:21:35.904Z,27.70
2018-06-20T10:26:30.326Z,27.90
2018-06-20T10:31:24.866Z,27.70
2018-06-20T10:36:19.642Z,27.60
2018-06-20T10:41:14.077Z,27.70
2018-06-20T10:46:13.695Z,28.30
2018-06-20T10:51:08.584Z,28.90
2018-06-20T10:56:03.037Z,28.30
2018-06-20T11:01:02.675Z,28.10
2018-06-20T11:06:02.248Z,28.40
2018-06-20T11:11:03.839Z,28.60
2018-06-20T11:15:59.307Z,28.60
2018-06-20T11:20:57.188Z,28.60
2018-06-20T11:30:47.496Z,28.70
2018-06-20T11:35:42.316Z,28.80
2018-06-20T11:40:36.763Z,28.80
2018-06-20T11:45:36.535Z,28.20
2018-06-20T11:50:31.238Z,28.50
2018-06-20T11:55:32.314Z,29.00
2018-06-20T12:00:37.861Z,29.00
2018-06-20T12:05:37.925Z,29.40
2018-06-20T12:10:38.517Z,29.90
2018-06-20T12:15:39.641Z,29.80
2018-06-20T12:20:39.734Z,29.20
2018-06-20T12:25:48.336Z,29.50
2018-06-20T12:30:48.653Z,29.70
2018-06-20T12:35:49.772Z,29.50
2018-06-20T12:40:50.142Z,29.70
2018-06-20T12:45:45.498Z,29.90
2018-06-20T12:50:45.149Z,29.40
2018-06-20T12:55:41.437Z,29.30
2018-06-20T13:00:36.597Z,29.60
2018-06-20T13:05:34.875Z,29.60
2018-06-20T13:10:32.324Z,29.50
2018-06-20T13:15:32.676Z,29.50
2018-06-20T13:20:28.209Z,29.80
2018-06-20T13:25:23.390Z,29.90
2018-06-20T13:30:18.744Z,29.80
2018-06-20T13:35:33.972Z,29.90
2018-06-20T13:40:34.225Z,29.60
2018-06-20T13:50:47.011Z,29.80
2018-06-20T13:55:51.286Z,29.70
2018-06-20T14:00:54.600Z,30.00
2018-06-20T14:05:58.782Z,30.00
2018-06-20T14:11:01.591Z,29.80
2018-06-20T14:15:56.400Z,29.60
2018-06-20T14:21:04.845Z,29.60
2018-06-20T14:26:12.159Z,29.40
2018-06-20T14:31:21.591Z,29.60
2018-06-20T14:36:33.279Z,29.70
2018-06-20T14:41:28.135Z,30.00
2018-06-20T14:46:23.708Z,30.00
2018-06-20T14:51:18.258Z,30.20
2018-06-20T15:01:07.094Z,30.10
2018-06-20T15:06:01.497Z,30.10
2018-06-20T15:10:55.964Z,30.30
2018-06-20T15:15:50.477Z,30.50
2018-06-20T15:20:44.932Z,30.50
2018-06-20T15:25:39.381Z,30.40
2018-06-20T15:30:44.054Z,30.40
2018-06-20T15:35:43.682Z,30.40
2018-06-20T15:40:38.108Z,29.80
2018-06-20T15:45:32.576Z,30.00
2018-06-20T15:50:27.090Z,30.10
2018-06-20T15:55:22.080Z,30.10
2018-06-20T16:00:16.524Z,30.40
2018-06-20T16:05:10.964Z,30.40
2018-06-20T16:10:06.972Z,30.60
2018-06-20T16:15:01.456Z,30.10
2018-06-20T16:20:01.165Z,30.20
2018-06-20T16:30:00.460Z,30.30
2018-06-20T16:34:55.046Z,30.30
2018-06-20T16:39:49.881Z,30.20
2018-06-20T16:44:44.966Z,30.20
2018-06-20T16:49:40.774Z,30.30
2018-06-20T16:54:36.136Z,30.10
2018-06-20T16:59:31.136Z,29.70
2018-06-20T17:04:25.995Z,29.90
2018-06-20T17:09:20.665Z,30.00
2018-06-20T17:14:20.391Z,29.80
2018-06-20T17:19:20.142Z,29.90
2018-06-20T17:24:21.429Z,29.80
2018-06-20T17:29:20.122Z,29.70
2018-06-20T17:34:16.624Z,29.90
2018-06-20T17:44:08.424Z,29.80
2018-06-20T17:49:04.019Z,29.80
2018-06-20T17:58:53.420Z,29.60
2018-06-20T18:03:48.156Z,29.50
2018-06-20T18:08:48.184Z,29.40
2018-06-20T18:13:48.295Z,29.60
2018-06-20T18:18:44.348Z,29.40
2018-06-20T18:23:39.042Z,29.30
2018-06-20T18:28:33.708Z,29.00
2018-06-20T18:33:28.665Z,28.90
2018-06-20T18:38:23.441Z,28.90
2018-06-20T18:43:18.431Z,28.80
2018-06-20T18:48:18.841Z,28.70
2018-06-20T18:53:13.691Z,28.70
2018-06-20T18:58:13.274Z,29.80
2018-06-20T19:03:13.185Z,30.60
2018-06-20T19:08:13.204Z,30.70
2018-06-20T19:13:15.150Z,29.50
2018-06-20T19:18:09.609Z,28.40
2018-06-20T19:23:04.416Z,27.60
2018-06-20T19:27:59.044Z,27.20
2018-06-20T19:32:53.645Z,27.00
2018-06-20T19:37:48.356Z,26.70
2018-06-20T19:42:42.877Z,26.50
2018-06-20T19:47:37.413Z,26.40
2018-06-20T19:52:32.052Z,26.20
2018-06-20T20:02:23.037Z,25.90
2018-06-20T20:07:17.689Z,25.80
2018-06-20T20:12:12.259Z,25.60
2018-06-20T20:17:06.878Z,25.50
2018-06-20T20:22:01.467Z,25.30
2018-06-20T20:26:56.061Z,25.20
2018-06-20T20:31:50.613Z,25.10
2018-06-20T20:36:45.144Z,24.90
2018-06-20T20:41:39.717Z,24.80
2018-06-20T20:46:34.333Z,24.80
2018-06-20T20:51:29.570Z,24.60
2018-06-20T20:56:24.275Z,24.50
2018-06-20T21:01:19.015Z,24.40
2018-06-20T21:06:13.832Z,24.10
2018-06-20T21:11:08.681Z,24.00
2018-06-20T21:16:03.410Z,23.90
2018-06-20T21:20:59.040Z,23.80
2018-06-20T21:25:54.042Z,23.80
2018-06-20T21:30:48.657Z,23.70
2018-06-20T21:35:43.157Z,23.50
2018-06-20T21:40:37.800Z,23.40
2018-06-20T21:45:32.301Z,23.30
2018-06-20T21:50:32.438Z,23.20
2018-06-20T21:55:27.052Z,23.10
2018-06-20T22:00:24.021Z,23.10
2018-06-20T22:05:18.586Z,22.90
2018-06-20T22:10:13.057Z,22.80
2018-06-20T22:15:07.618Z,22.70
2018-06-20T22:24:56.440Z,22.70
2018-06-20T22:29:51.012Z,22.70
2018-06-20T22:34:45.542Z,22.60
2018-06-20T22:39:40.020Z,22.30
2018-06-20T22:44:35.139Z,22.20
2018-06-20T22:49:29.677Z,22.20
2018-06-20T22:54:24.242Z,22.20
2018-06-20T22:59:18.766Z,22.00
2018-06-20T23:04:13.288Z,22.00
2018-06-20T23:09:10.104Z,21.80
2018-06-20T23:18:58.854Z,21.80
2018-06-20T23:23:53.365Z,21.80
2018-06-20T23:28:47.832Z,21.70
2018-06-20T23:33:42.278Z,21.50
2018-06-20T23:38:36.761Z,21.40
2018-06-20T23:43:31.378Z,21.40
2018-06-20T23:48:25.937Z,21.40
2018-06-20T23:53:20.456Z,21.40
